sensor_id;sensor_type;location;lat;lon;timestamp;P1;durP1;ratioP1;P2;durP2;ratioP2
55067;SDS011;40965;52.368;9.712;2023-06-19T00:02:16;3.47;;;3.25;;
55067;SDS011;40965;52.368;9.712;2023-06-19T00:04:43;4.13;;;3.63;;
55067;SDS011;40965;52.368;9.712;2023-06-19T00:07:10;4.10;;;3.58;;
55067;SDS011;40965;52.368;9.712;2023-06-19T00:09:36;3.72;;;3.42;;
55067;SDS011;40965;52.368;9.712;2023-06-19T00:12:03;4.22;;;3.85;;
55067;SDS011;40965;52.368;9.712;2023-06-19T00:14:31;4.40;;;4.10;;
55067;SDS011;40965;52.368;9.712;2023-06-19T00:16:57;4.10;;;3.70;;
55067;SDS011;40965;52.368;9.712;2023-06-19T00:19:28;4.70;;;3.58;;
55067;SDS011;40965;52.368;9.712;2023-06-19T00:21:55;4.43;;;4.10;;
55067;SDS011;40965;52.368;9.712;2023-06-19T00:24:22;4.35;;;3.95;;
55067;SDS011;40965;52.368;9.712;2023-06-19T00:26:49;4.55;;;3.60;;
55067;SDS011;40965;52.368;9.712;2023-06-19T00:29:16;4.40;;;3.85;;
55067;SDS011;40965;52.368;9.712;2023-06-19T00:31:42;4.00;;;3.70;;
55067;SDS011;40965;52.368;9.712;2023-06-19T00:34:09;3.97;;;3.65;;
55067;SDS011;40965;52.368;9.712;2023-06-19T00:36:35;4.45;;;4.05;;
55067;SDS011;40965;52.368;9.712;2023-06-19T00:39:06;4.43;;;3.85;;
55067;SDS011;40965;52.368;9.712;2023-06-19T00:41:33;5.05;;;4.22;;
55067;SDS011;40965;52.368;9.712;2023-06-19T00:44:01;4.35;;;4.05;;
55067;SDS011;40965;52.368;9.712;2023-06-19T00:46:27;4.22;;;3.92;;
55067;SDS011;40965;52.368;9.712;2023-06-19T00:48:54;4.25;;;3.85;;
55067;SDS011;40965;52.368;9.712;2023-06-19T00:51:21;4.35;;;3.95;;
55067;SDS011;40965;52.368;9.712;2023-06-19T00:53:47;4.18;;;3.88;;
55067;SDS011;40965;52.368;9.712;2023-06-19T00:56:14;4.35;;;3.95;;
55067;SDS011;40965;52.368;9.712;2023-06-19T00:58:43;3.20;;;3.00;;
55067;SDS011;40965;52.368;9.712;2023-06-19T01:01:10;4.28;;;3.97;;
55067;SDS011;40965;52.368;9.712;2023-06-19T01:03:36;5.60;;;3.70;;
55067;SDS011;40965;52.368;9.712;2023-06-19T01:06:05;4.80;;;4.40;;
55067;SDS011;40965;52.368;9.712;2023-06-19T01:08:55;4.22;;;3.83;;
55067;SDS011;40965;52.368;9.712;2023-06-19T01:14:26;5.22;;;4.78;;
55067;SDS011;40965;52.368;9.712;2023-06-19T01:16:59;4.00;;;3.70;;
55067;SDS011;40965;52.368;9.712;2023-06-19T01:19:26;4.07;;;3.78;;
55067;SDS011;40965;52.368;9.712;2023-06-19T01:21:53;4.28;;;3.88;;
55067;SDS011;40965;52.368;9.712;2023-06-19T01:24:20;4.30;;;3.40;;
55067;SDS011;40965;52.368;9.712;2023-06-19T01:26:46;4.60;;;4.20;;
55067;SDS011;40965;52.368;9.712;2023-06-19T01:29:13;3.83;;;3.53;;
55067;SDS011;40965;52.368;9.712;2023-06-19T01:31:50;4.25;;;3.85;;
55067;SDS011;40965;52.368;9.712;2023-06-19T01:34:39;5.00;;;4.10;;
55067;SDS011;40965;52.368;9.712;2023-06-19T01:37:06;3.85;;;3.55;;
55067;SDS011;40965;52.368;9.712;2023-06-19T01:39:33;4.63;;;4.22;;
55067;SDS011;40965;52.368;9.712;2023-06-19T01:42:01;3.92;;;3.63;;
55067;SDS011;40965;52.368;9.712;2023-06-19T01:44:30;3.92;;;3.55;;
55067;SDS011;40965;52.368;9.712;2023-06-19T01:46:57;4.28;;;3.95;;
55067;SDS011;40965;52.368;9.712;2023-06-19T01:49:24;3.90;;;3.60;;
55067;SDS011;40965;52.368;9.712;2023-06-19T01:51:51;3.58;;;3.28;;
55067;SDS011;40965;52.368;9.712;2023-06-19T01:54:17;4.38;;;4.00;;
55067;SDS011;40965;52.368;9.712;2023-06-19T01:56:44;8.68;;;4.38;;
55067;SDS011;40965;52.368;9.712;2023-06-19T01:59:10;4.20;;;3.90;;
55067;SDS011;40965;52.368;9.712;2023-06-19T02:01:37;4.28;;;3.88;;
55067;SDS011;40965;52.368;9.712;2023-06-19T02:04:04;4.20;;;3.80;;
55067;SDS011;40965;52.368;9.712;2023-06-19T02:06:30;3.92;;;3.63;;
55067;SDS011;40965;52.368;9.712;2023-06-19T02:08:57;4.07;;;3.78;;
55067;SDS011;40965;52.368;9.712;2023-06-19T02:11:23;4.78;;;4.10;;
55067;SDS011;40965;52.368;9.712;2023-06-19T02:13:50;4.28;;;3.97;;
55067;SDS011;40965;52.368;9.712;2023-06-19T02:16:16;6.43;;;4.20;;
55067;SDS011;40965;52.368;9.712;2023-06-19T02:18:43;4.82;;;4.38;;
55067;SDS011;40965;52.368;9.712;2023-06-19T02:21:09;4.35;;;3.95;;
55067;SDS011;40965;52.368;9.712;2023-06-19T02:23:36;5.57;;;4.68;;
55067;SDS011;40965;52.368;9.712;2023-06-19T02:26:02;5.07;;;4.20;;
55067;SDS011;40965;52.368;9.712;2023-06-19T02:28:28;4.30;;;4.00;;
55067;SDS011;40965;52.368;9.712;2023-06-19T02:30:55;3.55;;;3.30;;
55067;SDS011;40965;52.368;9.712;2023-06-19T02:33:21;3.75;;;3.45;;
55067;SDS011;40965;52.368;9.712;2023-06-19T02:35:48;4.30;;;3.97;;
55067;SDS011;40965;52.368;9.712;2023-06-19T02:38:14;4.80;;;4.03;;
55067;SDS011;40965;52.368;9.712;2023-06-19T02:40:43;4.20;;;3.90;;
55067;SDS011;40965;52.368;9.712;2023-06-19T02:43:10;3.85;;;3.58;;
55067;SDS011;40965;52.368;9.712;2023-06-19T02:45:36;5.07;;;4.43;;
55067;SDS011;40965;52.368;9.712;2023-06-19T02:48:03;4.22;;;3.90;;
55067;SDS011;40965;52.368;9.712;2023-06-19T02:50:30;4.20;;;3.80;;
55067;SDS011;40965;52.368;9.712;2023-06-19T02:52:56;4.88;;;4.47;;
55067;SDS011;40965;52.368;9.712;2023-06-19T02:55:23;4.25;;;3.95;;
55067;SDS011;40965;52.368;9.712;2023-06-19T02:57:49;6.32;;;3.78;;
55067;SDS011;40965;52.368;9.712;2023-06-19T03:00:16;4.65;;;4.35;;
55067;SDS011;40965;52.368;9.712;2023-06-19T03:02:43;4.88;;;4.47;;
55067;SDS011;40965;52.368;9.712;2023-06-19T03:05:10;5.15;;;4.65;;
55067;SDS011;40965;52.368;9.712;2023-06-19T03:07:39;5.90;;;4.50;;
55067;SDS011;40965;52.368;9.712;2023-06-19T03:10:06;7.97;;;4.13;;
55067;SDS011;40965;52.368;9.712;2023-06-19T03:12:33;4.80;;;4.40;;
55067;SDS011;40965;52.368;9.712;2023-06-19T03:15:01;4.18;;;3.80;;
55067;SDS011;40965;52.368;9.712;2023-06-19T03:17:27;7.57;;;4.20;;
55067;SDS011;40965;52.368;9.712;2023-06-19T03:19:54;4.03;;;3.70;;
55067;SDS011;40965;52.368;9.712;2023-06-19T03:22:20;7.70;;;3.75;;
55067;SDS011;40965;52.368;9.712;2023-06-19T03:24:47;4.50;;;3.72;;
55067;SDS011;40965;52.368;9.712;2023-06-19T03:27:14;4.28;;;3.95;;
55067;SDS011;40965;52.368;9.712;2023-06-19T03:29:41;4.28;;;3.53;;
55067;SDS011;40965;52.368;9.712;2023-06-19T03:32:07;4.07;;;3.53;;
55067;SDS011;40965;52.368;9.712;2023-06-19T03:34:34;4.07;;;3.78;;
55067;SDS011;40965;52.368;9.712;2023-06-19T03:37:00;5.07;;;4.00;;
55067;SDS011;40965;52.368;9.712;2023-06-19T03:39:27;4.18;;;3.83;;
55067;SDS011;40965;52.368;9.712;2023-06-19T03:41:53;4.28;;;3.88;;
55067;SDS011;40965;52.368;9.712;2023-06-19T03:44:20;4.30;;;4.00;;
55067;SDS011;40965;52.368;9.712;2023-06-19T03:46:46;4.45;;;4.05;;
55067;SDS011;40965;52.368;9.712;2023-06-19T03:49:13;4.20;;;3.90;;
55067;SDS011;40965;52.368;9.712;2023-06-19T03:51:39;5.93;;;3.90;;
55067;SDS011;40965;52.368;9.712;2023-06-19T03:54:06;4.63;;;4.05;;
55067;SDS011;40965;52.368;9.712;2023-06-19T03:56:32;4.25;;;3.95;;
55067;SDS011;40965;52.368;9.712;2023-06-19T03:58:59;4.53;;;3.58;;
55067;SDS011;40965;52.368;9.712;2023-06-19T04:01:25;3.75;;;3.45;;
55067;SDS011;40965;52.368;9.712;2023-06-19T04:03:52;4.93;;;4.53;;
55067;SDS011;40965;52.368;9.712;2023-06-19T04:06:18;5.88;;;5.10;;
55067;SDS011;40965;52.368;9.712;2023-06-19T04:08:45;4.20;;;3.67;;
55067;SDS011;40965;52.368;9.712;2023-06-19T04:11:11;3.80;;;3.47;;
55067;SDS011;40965;52.368;9.712;2023-06-19T04:13:38;4.72;;;4.32;;
55067;SDS011;40965;52.368;9.712;2023-06-19T04:16:04;4.75;;;3.70;;
55067;SDS011;40965;52.368;9.712;2023-06-19T04:18:30;5.45;;;4.07;;
55067;SDS011;40965;52.368;9.712;2023-06-19T04:20:57;4.38;;;3.97;;
55067;SDS011;40965;52.368;9.712;2023-06-19T04:23:24;5.32;;;4.30;;
55067;SDS011;40965;52.368;9.712;2023-06-19T04:25:50;4.70;;;4.30;;
55067;SDS011;40965;52.368;9.712;2023-06-19T04:28:17;4.32;;;3.92;;
55067;SDS011;40965;52.368;9.712;2023-06-19T04:30:43;4.57;;;4.28;;
55067;SDS011;40965;52.368;9.712;2023-06-19T04:33:10;4.43;;;4.03;;
55067;SDS011;40965;52.368;9.712;2023-06-19T04:35:36;4.60;;;4.20;;
55067;SDS011;40965;52.368;9.712;2023-06-19T04:38:05;4.25;;;3.95;;
55067;SDS011;40965;52.368;9.712;2023-06-19T04:40:32;4.57;;;4.18;;
55067;SDS011;40965;52.368;9.712;2023-06-19T04:43:00;5.32;;;4.82;;
55067;SDS011;40965;52.368;9.712;2023-06-19T04:45:30;4.90;;;4.28;;
55067;SDS011;40965;52.368;9.712;2023-06-19T04:47:57;4.47;;;4.07;;
55067;SDS011;40965;52.368;9.712;2023-06-19T04:50:27;4.82;;;4.40;;
55067;SDS011;40965;52.368;9.712;2023-06-19T04:52:54;4.90;;;4.50;;
55067;SDS011;40965;52.368;9.712;2023-06-19T04:55:20;6.55;;;4.25;;
55067;SDS011;40965;52.368;9.712;2023-06-19T04:57:49;6.40;;;4.38;;
55067;SDS011;40965;52.368;9.712;2023-06-19T05:00:15;5.18;;;4.30;;
55067;SDS011;40965;52.368;9.712;2023-06-19T05:02:44;4.25;;;3.85;;
55067;SDS011;40965;52.368;9.712;2023-06-19T05:05:12;6.45;;;4.95;;
55067;SDS011;40965;52.368;9.712;2023-06-19T05:07:40;4.78;;;4.40;;
55067;SDS011;40965;52.368;9.712;2023-06-19T05:10:07;6.05;;;4.28;;
55067;SDS011;40965;52.368;9.712;2023-06-19T05:12:35;4.38;;;4.00;;
55067;SDS011;40965;52.368;9.712;2023-06-19T05:15:02;4.85;;;4.45;;
55067;SDS011;40965;52.368;9.712;2023-06-19T05:17:28;5.40;;;4.30;;
55067;SDS011;40965;52.368;9.712;2023-06-19T05:19:55;6.03;;;5.22;;
55067;SDS011;40965;52.368;9.712;2023-06-19T05:22:21;5.68;;;5.05;;
55067;SDS011;40965;52.368;9.712;2023-06-19T05:24:51;5.43;;;4.93;;
55067;SDS011;40965;52.368;9.712;2023-06-19T05:27:18;5.10;;;4.43;;
55067;SDS011;40965;52.368;9.712;2023-06-19T05:29:44;6.65;;;5.97;;
55067;SDS011;40965;52.368;9.712;2023-06-19T05:32:11;4.57;;;4.18;;
55067;SDS011;40965;52.368;9.712;2023-06-19T05:34:37;6.03;;;5.50;;
55067;SDS011;40965;52.368;9.712;2023-06-19T05:37:04;6.93;;;4.90;;
55067;SDS011;40965;52.368;9.712;2023-06-19T05:39:30;5.57;;;4.85;;
55067;SDS011;40965;52.368;9.712;2023-06-19T05:41:57;7.20;;;5.68;;
55067;SDS011;40965;52.368;9.712;2023-06-19T05:44:24;7.50;;;5.60;;
55067;SDS011;40965;52.368;9.712;2023-06-19T05:46:50;6.15;;;5.55;;
55067;SDS011;40965;52.368;9.712;2023-06-19T05:49:17;5.00;;;4.60;;
55067;SDS011;40965;52.368;9.712;2023-06-19T05:51:43;6.18;;;5.60;;
55067;SDS011;40965;52.368;9.712;2023-06-19T05:54:10;6.32;;;5.13;;
55067;SDS011;40965;52.368;9.712;2023-06-19T05:56:36;7.22;;;5.53;;
55067;SDS011;40965;52.368;9.712;2023-06-19T05:59:03;6.40;;;5.25;;
55067;SDS011;40965;52.368;9.712;2023-06-19T06:01:29;5.40;;;4.80;;
55067;SDS011;40965;52.368;9.712;2023-06-19T06:03:56;5.28;;;4.80;;
55067;SDS011;40965;52.368;9.712;2023-06-19T06:06:23;5.45;;;4.70;;
55067;SDS011;40965;52.368;9.712;2023-06-19T06:08:50;7.05;;;5.38;;
55067;SDS011;40965;52.368;9.712;2023-06-19T06:11:17;6.80;;;4.93;;
55067;SDS011;40965;52.368;9.712;2023-06-19T06:13:44;5.97;;;5.38;;
55067;SDS011;40965;52.368;9.712;2023-06-19T06:16:11;7.53;;;5.35;;
55067;SDS011;40965;52.368;9.712;2023-06-19T06:18:37;5.35;;;4.85;;
55067;SDS011;40965;52.368;9.712;2023-06-19T06:21:03;6.53;;;5.15;;
55067;SDS011;40965;52.368;9.712;2023-06-19T06:23:30;5.95;;;5.32;;
55067;SDS011;40965;52.368;9.712;2023-06-19T06:25:57;6.40;;;5.38;;
55067;SDS011;40965;52.368;9.712;2023-06-19T06:28:27;5.63;;;5.13;;
55067;SDS011;40965;52.368;9.712;2023-06-19T06:30:54;6.22;;;5.70;;
55067;SDS011;40965;52.368;9.712;2023-06-19T06:33:21;4.68;;;4.38;;
55067;SDS011;40965;52.368;9.712;2023-06-19T06:35:47;5.97;;;5.03;;
55067;SDS011;40965;52.368;9.712;2023-06-19T06:38:14;6.80;;;4.95;;
55067;SDS011;40965;52.368;9.712;2023-06-19T06:40:40;5.30;;;4.53;;
55067;SDS011;40965;52.368;9.712;2023-06-19T06:43:08;6.05;;;5.40;;
55067;SDS011;40965;52.368;9.712;2023-06-19T06:45:34;5.25;;;4.55;;
55067;SDS011;40965;52.368;9.712;2023-06-19T06:48:03;6.18;;;5.53;;
55067;SDS011;40965;52.368;9.712;2023-06-19T06:50:30;7.18;;;5.20;;
55067;SDS011;40965;52.368;9.712;2023-06-19T06:52:57;6.10;;;5.50;;
55067;SDS011;40965;52.368;9.712;2023-06-19T06:55:23;6.03;;;5.28;;
55067;SDS011;40965;52.368;9.712;2023-06-19T06:57:50;7.47;;;5.72;;
55067;SDS011;40965;52.368;9.712;2023-06-19T07:00:18;5.95;;;4.70;;
55067;SDS011;40965;52.368;9.712;2023-06-19T07:02:44;6.45;;;5.53;;
55067;SDS011;40965;52.368;9.712;2023-06-19T07:05:13;13.85;;;5.20;;
55067;SDS011;40965;52.368;9.712;2023-06-19T07:07:39;6.43;;;5.82;;
55067;SDS011;40965;52.368;9.712;2023-06-19T07:10:06;5.20;;;4.70;;
55067;SDS011;40965;52.368;9.712;2023-06-19T07:12:33;5.35;;;4.90;;
55067;SDS011;40965;52.368;9.712;2023-06-19T07:15:01;5.68;;;5.10;;
55067;SDS011;40965;52.368;9.712;2023-06-19T07:17:27;5.57;;;5.07;;
55067;SDS011;40965;52.368;9.712;2023-06-19T07:19:54;5.95;;;5.35;;
55067;SDS011;40965;52.368;9.712;2023-06-19T07:22:20;6.40;;;5.75;;
55067;SDS011;40965;52.368;9.712;2023-06-19T07:24:46;8.63;;;5.68;;
55067;SDS011;40965;52.368;9.712;2023-06-19T07:27:13;6.05;;;5.32;;
55067;SDS011;40965;52.368;9.712;2023-06-19T07:29:39;6.07;;;5.47;;
55067;SDS011;40965;52.368;9.712;2023-06-19T07:32:06;6.82;;;5.68;;
55067;SDS011;40965;52.368;9.712;2023-06-19T07:34:33;7.40;;;6.32;;
55067;SDS011;40965;52.368;9.712;2023-06-19T07:36:59;6.47;;;5.88;;
55067;SDS011;40965;52.368;9.712;2023-06-19T07:39:26;6.25;;;5.68;;
55067;SDS011;40965;52.368;9.712;2023-06-19T07:41:52;8.18;;;6.00;;
55067;SDS011;40965;52.368;9.712;2023-06-19T07:44:19;10.48;;;7.47;;
55067;SDS011;40965;52.368;9.712;2023-06-19T07:46:46;7.32;;;5.07;;
55067;SDS011;40965;52.368;9.712;2023-06-19T07:49:12;6.97;;;5.55;;
55067;SDS011;40965;52.368;9.712;2023-06-19T07:51:39;6.55;;;5.10;;
55067;SDS011;40965;52.368;9.712;2023-06-19T07:54:05;6.65;;;5.75;;
55067;SDS011;40965;52.368;9.712;2023-06-19T07:56:32;6.55;;;5.45;;
55067;SDS011;40965;52.368;9.712;2023-06-19T07:58:58;7.05;;;5.57;;
55067;SDS011;40965;52.368;9.712;2023-06-19T08:01:25;6.32;;;5.63;;
55067;SDS011;40965;52.368;9.712;2023-06-19T08:03:51;8.55;;;5.95;;
55067;SDS011;40965;52.368;9.712;2023-06-19T08:06:17;6.35;;;5.90;;
55067;SDS011;40965;52.368;9.712;2023-06-19T08:08:44;6.53;;;5.90;;
55067;SDS011;40965;52.368;9.712;2023-06-19T08:11:11;6.50;;;5.88;;
55067;SDS011;40965;52.368;9.712;2023-06-19T08:13:38;7.20;;;5.70;;
55067;SDS011;40965;52.368;9.712;2023-06-19T08:16:04;7.25;;;6.00;;
55067;SDS011;40965;52.368;9.712;2023-06-19T08:18:31;8.85;;;5.93;;
55067;SDS011;40965;52.368;9.712;2023-06-19T08:20:58;5.63;;;5.22;;
55067;SDS011;40965;52.368;9.712;2023-06-19T08:23:25;7.63;;;4.95;;
55067;SDS011;40965;52.368;9.712;2023-06-19T08:25:52;5.32;;;4.80;;
55067;SDS011;40965;52.368;9.712;2023-06-19T08:28:19;5.22;;;4.85;;
55067;SDS011;40965;52.368;9.712;2023-06-19T08:30:46;6.25;;;5.68;;
55067;SDS011;40965;52.368;9.712;2023-06-19T08:33:12;5.05;;;4.57;;
55067;SDS011;40965;52.368;9.712;2023-06-19T08:35:39;5.97;;;4.05;;
55067;SDS011;40965;52.368;9.712;2023-06-19T08:38:06;5.05;;;4.40;;
55067;SDS011;40965;52.368;9.712;2023-06-19T08:40:33;4.60;;;4.20;;
55067;SDS011;40965;52.368;9.712;2023-06-19T08:42:59;6.90;;;4.90;;
55067;SDS011;40965;52.368;9.712;2023-06-19T08:45:26;9.80;;;5.22;;
55067;SDS011;40965;52.368;9.712;2023-06-19T08:47:59;9.23;;;4.78;;
55067;SDS011;40965;52.368;9.712;2023-06-19T08:50:28;4.75;;;4.45;;
55067;SDS011;40965;52.368;9.712;2023-06-19T08:52:58;4.50;;;4.20;;
55067;SDS011;40965;52.368;9.712;2023-06-19T08:55:25;4.63;;;4.32;;
55067;SDS011;40965;52.368;9.712;2023-06-19T08:57:51;4.80;;;4.47;;
55067;SDS011;40965;52.368;9.712;2023-06-19T09:00:25;5.05;;;4.55;;
55067;SDS011;40965;52.368;9.712;2023-06-19T09:02:59;6.72;;;5.10;;
55067;SDS011;40965;52.368;9.712;2023-06-19T09:05:28;4.68;;;4.28;;
55067;SDS011;40965;52.368;9.712;2023-06-19T09:07:58;4.88;;;4.25;;
55067;SDS011;40965;52.368;9.712;2023-06-19T09:10:27;4.47;;;4.18;;
55067;SDS011;40965;52.368;9.712;2023-06-19T09:13:00;5.30;;;4.80;;
55067;SDS011;40965;52.368;9.712;2023-06-19T09:15:38;5.15;;;4.65;;
55067;SDS011;40965;52.368;9.712;2023-06-19T09:20:33;4.82;;;4.25;;
55067;SDS011;40965;52.368;9.712;2023-06-19T09:23:06;5.82;;;4.90;;
55067;SDS011;40965;52.368;9.712;2023-06-19T09:25:43;8.32;;;4.72;;
55067;SDS011;40965;52.368;9.712;2023-06-19T09:28:29;5.28;;;4.25;;
55067;SDS011;40965;52.368;9.712;2023-06-19T09:31:01;5.43;;;4.97;;
55067;SDS011;40965;52.368;9.712;2023-06-19T09:33:30;4.93;;;4.53;;
55067;SDS011;40965;52.368;9.712;2023-06-19T09:36:00;4.80;;;4.50;;
55067;SDS011;40965;52.368;9.712;2023-06-19T09:38:30;6.88;;;4.05;;
55067;SDS011;40965;52.368;9.712;2023-06-19T09:41:00;5.55;;;5.03;;
55067;SDS011;40965;52.368;9.712;2023-06-19T09:43:36;4.57;;;4.20;;
55067;SDS011;40965;52.368;9.712;2023-06-19T09:46:06;4.55;;;4.15;;
55067;SDS011;40965;52.368;9.712;2023-06-19T09:48:33;5.15;;;4.65;;
55067;SDS011;40965;52.368;9.712;2023-06-19T09:51:08;4.82;;;4.43;;
55067;SDS011;40965;52.368;9.712;2023-06-19T09:53:39;4.88;;;4.30;;
55067;SDS011;40965;52.368;9.712;2023-06-19T09:56:06;7.25;;;4.75;;
55067;SDS011;40965;52.368;9.712;2023-06-19T09:58:33;4.35;;;4.00;;
55067;SDS011;40965;52.368;9.712;2023-06-19T10:01:00;5.13;;;4.20;;
55067;SDS011;40965;52.368;9.712;2023-06-19T10:03:31;7.55;;;3.95;;
55067;SDS011;40965;52.368;9.712;2023-06-19T10:06:00;5.28;;;4.55;;
55067;SDS011;40965;52.368;9.712;2023-06-19T10:08:32;7.72;;;4.88;;
55067;SDS011;40965;52.368;9.712;2023-06-19T10:11:06;4.28;;;3.92;;
55067;SDS011;40965;52.368;9.712;2023-06-19T10:13:35;4.28;;;3.97;;
55067;SDS011;40965;52.368;9.712;2023-06-19T10:16:04;6.15;;;4.00;;
55067;SDS011;40965;52.368;9.712;2023-06-19T10:18:31;4.18;;;3.72;;
55067;SDS011;40965;52.368;9.712;2023-06-19T10:20:59;5.03;;;3.50;;
55067;SDS011;40965;52.368;9.712;2023-06-19T10:23:26;6.13;;;3.47;;
55067;SDS011;40965;52.368;9.712;2023-06-19T10:28:21;5.15;;;2.63;;
55067;SDS011;40965;52.368;9.712;2023-06-19T10:30:53;5.30;;;2.97;;
55067;SDS011;40965;52.368;9.712;2023-06-19T10:33:27;4.38;;;2.95;;
55067;SDS011;40965;52.368;9.712;2023-06-19T10:35:58;6.22;;;3.72;;
55067;SDS011;40965;52.368;9.712;2023-06-19T10:38:47;6.22;;;3.40;;
55067;SDS011;40965;52.368;9.712;2023-06-19T10:41:18;3.78;;;3.40;;
55067;SDS011;40965;52.368;9.712;2023-06-19T10:44:08;2.88;;;2.67;;
55067;SDS011;40965;52.368;9.712;2023-06-19T10:46:37;7.38;;;3.30;;
55067;SDS011;40965;52.368;9.712;2023-06-19T10:49:05;4.35;;;2.95;;
55067;SDS011;40965;52.368;9.712;2023-06-19T10:51:38;3.50;;;3.20;;
55067;SDS011;40965;52.368;9.712;2023-06-19T10:54:08;4.57;;;3.25;;
55067;SDS011;40965;52.368;9.712;2023-06-19T10:56:35;3.20;;;2.90;;
55067;SDS011;40965;52.368;9.712;2023-06-19T10:59:08;7.50;;;2.88;;
55067;SDS011;40965;52.368;9.712;2023-06-19T11:01:39;2.67;;;2.47;;
55067;SDS011;40965;52.368;9.712;2023-06-19T11:04:13;3.05;;;2.20;;
55067;SDS011;40965;52.368;9.712;2023-06-19T11:06:42;6.65;;;2.63;;
55067;SDS011;40965;52.368;9.712;2023-06-19T11:09:11;1.98;;;1.88;;
55067;SDS011;40965;52.368;9.712;2023-06-19T11:11:40;2.53;;;2.33;;
55067;SDS011;40965;52.368;9.712;2023-06-19T11:14:10;2.47;;;2.13;;
55067;SDS011;40965;52.368;9.712;2023-06-19T11:16:39;2.30;;;1.95;;
55067;SDS011;40965;52.368;9.712;2023-06-19T11:19:08;1.98;;;1.90;;
55067;SDS011;40965;52.368;9.712;2023-06-19T11:21:47;2.35;;;2.25;;
55067;SDS011;40965;52.368;9.712;2023-06-19T11:24:15;2.00;;;1.88;;
55067;SDS011;40965;52.368;9.712;2023-06-19T11:26:43;7.53;;;2.58;;
55067;SDS011;40965;52.368;9.712;2023-06-19T11:31:45;2.30;;;2.20;;
55067;SDS011;40965;52.368;9.712;2023-06-19T11:34:13;4.70;;;1.92;;
55067;SDS011;40965;52.368;9.712;2023-06-19T11:36:42;2.65;;;1.75;;
55067;SDS011;40965;52.368;9.712;2023-06-19T11:39:09;1.55;;;1.45;;
55067;SDS011;40965;52.368;9.712;2023-06-19T11:41:38;2.70;;;1.50;;
55067;SDS011;40965;52.368;9.712;2023-06-19T11:44:07;1.80;;;1.70;;
55067;SDS011;40965;52.368;9.712;2023-06-19T11:46:37;2.00;;;1.90;;
55067;SDS011;40965;52.368;9.712;2023-06-19T11:49:07;2.90;;;2.20;;
55067;SDS011;40965;52.368;9.712;2023-06-19T11:51:36;2.33;;;2.08;;
55067;SDS011;40965;52.368;9.712;2023-06-19T11:54:05;1.70;;;1.60;;
55067;SDS011;40965;52.368;9.712;2023-06-19T11:56:34;1.92;;;1.38;;
55067;SDS011;40965;52.368;9.712;2023-06-19T11:59:05;3.92;;;2.58;;
55067;SDS011;40965;52.368;9.712;2023-06-19T12:01:38;3.13;;;2.35;;
55067;SDS011;40965;52.368;9.712;2023-06-19T12:04:04;3.72;;;2.30;;
55067;SDS011;40965;52.368;9.712;2023-06-19T12:06:31;1.88;;;1.77;;
55067;SDS011;40965;52.368;9.712;2023-06-19T12:08:57;2.53;;;2.38;;
55067;SDS011;40965;52.368;9.712;2023-06-19T12:11:24;3.40;;;2.10;;
55067;SDS011;40965;52.368;9.712;2023-06-19T12:13:51;2.72;;;2.47;;
55067;SDS011;40965;52.368;9.712;2023-06-19T12:16:21;2.92;;;2.65;;
55067;SDS011;40965;52.368;9.712;2023-06-19T12:18:47;3.22;;;3.00;;
55067;SDS011;40965;52.368;9.712;2023-06-19T12:21:14;2.70;;;2.60;;
55067;SDS011;40965;52.368;9.712;2023-06-19T12:23:40;3.22;;;2.45;;
55067;SDS011;40965;52.368;9.712;2023-06-19T12:26:07;3.20;;;2.90;;
55067;SDS011;40965;52.368;9.712;2023-06-19T12:28:34;3.30;;;2.63;;
55067;SDS011;40965;52.368;9.712;2023-06-19T12:31:00;2.60;;;2.50;;
55067;SDS011;40965;52.368;9.712;2023-06-19T12:33:28;2.00;;;1.95;;
55067;SDS011;40965;52.368;9.712;2023-06-19T12:35:56;2.60;;;2.40;;
55067;SDS011;40965;52.368;9.712;2023-06-19T12:38:22;3.13;;;1.73;;
55067;SDS011;40965;52.368;9.712;2023-06-19T12:40:49;2.30;;;2.20;;
55067;SDS011;40965;52.368;9.712;2023-06-19T12:43:15;2.38;;;2.28;;
55067;SDS011;40965;52.368;9.712;2023-06-19T12:45:42;2.42;;;2.33;;
55067;SDS011;40965;52.368;9.712;2023-06-19T12:48:10;2.17;;;2.15;;
55067;SDS011;40965;52.368;9.712;2023-06-19T12:50:36;2.92;;;2.03;;
55067;SDS011;40965;52.368;9.712;2023-06-19T12:53:03;2.08;;;1.98;;
55067;SDS011;40965;52.368;9.712;2023-06-19T12:55:29;2.05;;;1.95;;
55067;SDS011;40965;52.368;9.712;2023-06-19T12:57:56;2.33;;;2.22;;
55067;SDS011;40965;52.368;9.712;2023-06-19T13:00:22;4.25;;;2.33;;
55067;SDS011;40965;52.368;9.712;2023-06-19T13:02:48;2.83;;;2.63;;
55067;SDS011;40965;52.368;9.712;2023-06-19T13:05:15;2.53;;;2.28;;
55067;SDS011;40965;52.368;9.712;2023-06-19T13:07:42;3.08;;;2.45;;
55067;SDS011;40965;52.368;9.712;2023-06-19T13:10:08;2.75;;;2.65;;
55067;SDS011;40965;52.368;9.712;2023-06-19T13:12:35;3.63;;;2.50;;
55067;SDS011;40965;52.368;9.712;2023-06-19T13:15:02;2.40;;;2.22;;
55067;SDS011;40965;52.368;9.712;2023-06-19T13:17:28;2.70;;;2.50;;
55067;SDS011;40965;52.368;9.712;2023-06-19T13:19:55;2.35;;;2.15;;
55067;SDS011;40965;52.368;9.712;2023-06-19T13:22:22;2.53;;;2.10;;
55067;SDS011;40965;52.368;9.712;2023-06-19T13:24:49;2.15;;;2.03;;
55067;SDS011;40965;52.368;9.712;2023-06-19T13:27:15;2.10;;;2.03;;
55067;SDS011;40965;52.368;9.712;2023-06-19T13:29:41;2.10;;;2.00;;
55067;SDS011;40965;52.368;9.712;2023-06-19T13:32:08;2.70;;;2.50;;
55067;SDS011;40965;52.368;9.712;2023-06-19T13:34:35;2.85;;;2.05;;
55067;SDS011;40965;52.368;9.712;2023-06-19T13:37:01;2.97;;;2.78;;
55067;SDS011;40965;52.368;9.712;2023-06-19T13:39:28;2.60;;;2.42;;
55067;SDS011;40965;52.368;9.712;2023-06-19T13:41:55;2.45;;;2.35;;
55067;SDS011;40965;52.368;9.712;2023-06-19T13:44:22;2.40;;;2.20;;
55067;SDS011;40965;52.368;9.712;2023-06-19T13:46:48;2.58;;;2.38;;
55067;SDS011;40965;52.368;9.712;2023-06-19T13:49:17;3.60;;;3.10;;
55067;SDS011;40965;52.368;9.712;2023-06-19T13:51:43;3.88;;;2.63;;
55067;SDS011;40965;52.368;9.712;2023-06-19T13:54:10;4.20;;;2.85;;
55067;SDS011;40965;52.368;9.712;2023-06-19T13:56:37;2.40;;;2.30;;
55067;SDS011;40965;52.368;9.712;2023-06-19T13:59:04;2.17;;;2.05;;
55067;SDS011;40965;52.368;9.712;2023-06-19T14:01:31;2.70;;;2.50;;
55067;SDS011;40965;52.368;9.712;2023-06-19T14:03:58;2.22;;;2.13;;
55067;SDS011;40965;52.368;9.712;2023-06-19T14:06:25;1.90;;;1.90;;
55067;SDS011;40965;52.368;9.712;2023-06-19T14:08:51;2.05;;;2.00;;
55067;SDS011;40965;52.368;9.712;2023-06-19T14:11:18;1.88;;;1.67;;
55067;SDS011;40965;52.368;9.712;2023-06-19T14:13:47;3.50;;;1.60;;
55067;SDS011;40965;52.368;9.712;2023-06-19T14:16:14;1.70;;;1.70;;
55067;SDS011;40965;52.368;9.712;2023-06-19T14:18:41;1.90;;;1.90;;
55067;SDS011;40965;52.368;9.712;2023-06-19T14:21:07;1.60;;;1.60;;
55067;SDS011;40965;52.368;9.712;2023-06-19T14:23:34;2.08;;;1.88;;
55067;SDS011;40965;52.368;9.712;2023-06-19T14:26:05;1.95;;;1.85;;
55067;SDS011;40965;52.368;9.712;2023-06-19T14:28:31;2.00;;;1.90;;
55067;SDS011;40965;52.368;9.712;2023-06-19T14:30:58;1.77;;;1.40;;
55067;SDS011;40965;52.368;9.712;2023-06-19T14:33:24;1.92;;;1.83;;
55067;SDS011;40965;52.368;9.712;2023-06-19T14:35:51;1.70;;;1.60;;
55067;SDS011;40965;52.368;9.712;2023-06-19T14:38:17;2.45;;;1.75;;
55067;SDS011;40965;52.368;9.712;2023-06-19T14:40:44;3.50;;;2.20;;
55067;SDS011;40965;52.368;9.712;2023-06-19T14:43:10;1.85;;;1.75;;
55067;SDS011;40965;52.368;9.712;2023-06-19T14:45:37;3.03;;;1.80;;
55067;SDS011;40965;52.368;9.712;2023-06-19T14:48:05;1.77;;;1.77;;
55067;SDS011;40965;52.368;9.712;2023-06-19T14:50:31;1.92;;;1.35;;
55067;SDS011;40965;52.368;9.712;2023-06-19T14:52:58;1.70;;;1.60;;
55067;SDS011;40965;52.368;9.712;2023-06-19T14:55:25;2.00;;;1.90;;
55067;SDS011;40965;52.368;9.712;2023-06-19T14:57:51;1.83;;;1.73;;
55067;SDS011;40965;52.368;9.712;2023-06-19T15:00:18;1.85;;;1.75;;
55067;SDS011;40965;52.368;9.712;2023-06-19T15:02:45;2.10;;;1.90;;